sensor_id;sensor_type;location;lat;lon;timestamp;pressure;altitude;pressure_sealevel;temperature;humidity
44313;BME280;38833;51.142;-0.974;2023-10-19T00:01:13;97125.73;;;27.58;33.25
44313;BME280;38833;51.142;-0.974;2023-10-19T00:03:46;97123.94;;;27.24;33.33
44313;BME280;38833;51.142;-0.974;2023-10-19T00:06:19;97122.42;;;27.01;33.30
44313;BME280;38833;51.142;-0.974;2023-10-19T00:08:52;97125.79;;;26.76;33.28
44313;BME280;38833;51.142;-0.974;2023-10-19T00:11:25;97119.24;;;27.19;33.31
44313;BME280;38833;51.142;-0.974;2023-10-19T00:13:58;97116.99;;;27.21;33.28
44313;BME280;38833;51.142;-0.974;2023-10-19T00:16:31;97114.90;;;27.18;33.29
44313;BME280;38833;51.142;-0.974;2023-10-19T00:19:05;97117.27;;;27.12;33.32
44313;BME280;38833;51.142;-0.974;2023-10-19T00:21:38;97121.86;;;27.11;33.35
44313;BME280;38833;51.142;-0.974;2023-10-19T00:24:11;97120.03;;;26.98;33.45
44313;BME280;38833;51.142;-0.974;2023-10-19T00:26:44;97116.09;;;26.82;33.38
44313;BME280;38833;51.142;-0.974;2023-10-19T00:29:17;97117.90;;;26.84;33.32
44313;BME280;38833;51.142;-0.974;2023-10-19T00:31:51;97114.51;;;26.94;33.44
44313;BME280;38833;51.142;-0.974;2023-10-19T00:34:24;97111.59;;;26.75;33.39
44313;BME280;38833;51.142;-0.974;2023-10-19T00:36:57;97115.51;;;26.71;33.42
44313;BME280;38833;51.142;-0.974;2023-10-19T00:39:30;97110.29;;;26.96;33.35
44313;BME280;38833;51.142;-0.974;2023-10-19T00:42:04;97113.27;;;26.70;33.37
44313;BME280;38833;51.142;-0.974;2023-10-19T00:44:37;97110.09;;;26.88;33.41
44313;BME280;38833;51.142;-0.974;2023-10-19T00:47:10;97107.41;;;26.65;33.44
44313;BME280;38833;51.142;-0.974;2023-10-19T00:49:43;97110.93;;;26.82;33.44
44313;BME280;38833;51.142;-0.974;2023-10-19T00:52:17;97115.09;;;26.59;33.44
44313;BME280;38833;51.142;-0.974;2023-10-19T00:54:51;97111.25;;;26.79;33.44
44313;BME280;38833;51.142;-0.974;2023-10-19T00:57:25;97110.77;;;26.84;33.37
44313;BME280;38833;51.142;-0.974;2023-10-19T00:59:58;97105.57;;;26.70;33.50
44313;BME280;38833;51.142;-0.974;2023-10-19T01:02:32;97103.99;;;26.72;33.46
44313;BME280;38833;51.142;-0.974;2023-10-19T01:05:05;97105.57;;;26.51;33.44
44313;BME280;38833;51.142;-0.974;2023-10-19T01:07:39;97104.10;;;26.79;33.36
44313;BME280;38833;51.142;-0.974;2023-10-19T01:10:13;97104.52;;;26.71;33.45
44313;BME280;38833;51.142;-0.974;2023-10-19T01:12:46;97108.31;;;26.95;33.39
44313;BME280;38833;51.142;-0.974;2023-10-19T01:15:21;97110.43;;;26.71;33.41
44313;BME280;38833;51.142;-0.974;2023-10-19T01:17:56;97110.51;;;26.59;33.52
44313;BME280;38833;51.142;-0.974;2023-10-19T01:20:31;97103.92;;;26.57;33.52
44313;BME280;38833;51.142;-0.974;2023-10-19T01:23:06;97106.70;;;26.65;33.43
44313;BME280;38833;51.142;-0.974;2023-10-19T01:25:43;97108.07;;;26.64;33.41
44313;BME280;38833;51.142;-0.974;2023-10-19T01:28:17;97103.25;;;26.55;33.50
44313;BME280;38833;51.142;-0.974;2023-10-19T01:30:51;97101.19;;;26.54;33.48
44313;BME280;38833;51.142;-0.974;2023-10-19T01:33:24;97103.05;;;26.54;33.46
44313;BME280;38833;51.142;-0.974;2023-10-19T01:35:57;97102.35;;;26.52;33.51
44313;BME280;38833;51.142;-0.974;2023-10-19T01:38:31;97097.69;;;26.55;33.42
44313;BME280;38833;51.142;-0.974;2023-10-19T01:41:05;97096.46;;;26.66;33.55
44313;BME280;38833;51.142;-0.974;2023-10-19T01:43:40;97090.56;;;26.46;33.47
44313;BME280;38833;51.142;-0.974;2023-10-19T01:46:15;97092.23;;;26.40;33.53
44313;BME280;38833;51.142;-0.974;2023-10-19T01:48:50;97091.37;;;26.63;33.51
44313;BME280;38833;51.142;-0.974;2023-10-19T01:51:25;97091.72;;;26.62;33.53
44313;BME280;38833;51.142;-0.974;2023-10-19T01:53:59;97082.42;;;26.28;33.62
44313;BME280;38833;51.142;-0.974;2023-10-19T01:56:33;97077.93;;;26.30;33.59
44313;BME280;38833;51.142;-0.974;2023-10-19T01:59:06;97075.56;;;26.49;33.62
44313;BME280;38833;51.142;-0.974;2023-10-19T02:01:39;97068.18;;;26.46;33.42
44313;BME280;38833;51.142;-0.974;2023-10-19T02:04:12;97060.34;;;26.51;33.57
44313;BME280;38833;51.142;-0.974;2023-10-19T02:06:46;97052.89;;;26.34;33.50
44313;BME280;38833;51.142;-0.974;2023-10-19T02:09:19;97049.21;;;26.33;33.53
44313;BME280;38833;51.142;-0.974;2023-10-19T02:11:54;97049.50;;;26.26;33.56
44313;BME280;38833;51.142;-0.974;2023-10-19T02:14:28;97043.09;;;26.26;33.55
44313;BME280;38833;51.142;-0.974;2023-10-19T02:17:01;97044.86;;;26.11;33.68
44313;BME280;38833;51.142;-0.974;2023-10-19T02:19:35;97042.70;;;26.25;33.52
44313;BME280;38833;51.142;-0.974;2023-10-19T02:22:08;97041.15;;;26.19;33.58
44313;BME280;38833;51.142;-0.974;2023-10-19T02:24:41;97041.13;;;26.14;33.62
44313;BME280;38833;51.142;-0.974;2023-10-19T02:27:14;97032.88;;;26.07;33.68
44313;BME280;38833;51.142;-0.974;2023-10-19T02:29:47;97036.85;;;26.31;33.65
44313;BME280;38833;51.142;-0.974;2023-10-19T02:32:20;97030.10;;;26.35;33.60
44313;BME280;38833;51.142;-0.974;2023-10-19T02:34:54;97024.24;;;26.27;33.69
44313;BME280;38833;51.142;-0.974;2023-10-19T02:37:27;97025.87;;;26.32;33.62
44313;BME280;38833;51.142;-0.974;2023-10-19T02:40:00;97020.77;;;26.21;33.73
44313;BME280;38833;51.142;-0.974;2023-10-19T02:42:33;97014.76;;;26.20;33.74
44313;BME280;38833;51.142;-0.974;2023-10-19T02:45:08;97012.21;;;26.47;33.71
44313;BME280;38833;51.142;-0.974;2023-10-19T02:47:43;97005.66;;;26.00;33.70
44313;BME280;38833;51.142;-0.974;2023-10-19T02:50:16;96996.08;;;26.27;33.61
44313;BME280;38833;51.142;-0.974;2023-10-19T02:52:49;96995.07;;;26.01;33.61
44313;BME280;38833;51.142;-0.974;2023-10-19T02:55:22;96993.12;;;26.07;33.58
44313;BME280;38833;51.142;-0.974;2023-10-19T02:57:56;96994.36;;;26.18;33.67
44313;BME280;38833;51.142;-0.974;2023-10-19T03:00:29;96992.22;;;26.22;33.61
44313;BME280;38833;51.142;-0.974;2023-10-19T03:03:02;96989.27;;;25.94;33.67
44313;BME280;38833;51.142;-0.974;2023-10-19T03:05:36;96986.51;;;26.05;33.55
44313;BME280;38833;51.142;-0.974;2023-10-19T03:08:09;96984.87;;;25.92;33.67
44313;BME280;38833;51.142;-0.974;2023-10-19T03:10:42;96979.65;;;26.32;33.76
44313;BME280;38833;51.142;-0.974;2023-10-19T03:13:15;96972.85;;;25.81;33.76
44313;BME280;38833;51.142;-0.974;2023-10-19T03:15:48;96974.02;;;26.19;33.61
44313;BME280;38833;51.142;-0.974;2023-10-19T03:18:21;96970.04;;;26.40;33.60
44313;BME280;38833;51.142;-0.974;2023-10-19T03:20:55;96966.56;;;25.96;33.82
44313;BME280;38833;51.142;-0.974;2023-10-19T03:23:28;96965.46;;;26.07;33.68
44313;BME280;38833;51.142;-0.974;2023-10-19T03:26:01;96962.58;;;25.89;33.64
44313;BME280;38833;51.142;-0.974;2023-10-19T03:28:34;96955.24;;;25.97;33.77
44313;BME280;38833;51.142;-0.974;2023-10-19T03:31:07;96950.76;;;25.96;33.77
44313;BME280;38833;51.142;-0.974;2023-10-19T03:33:40;96953.21;;;26.29;33.70
44313;BME280;38833;51.142;-0.974;2023-10-19T03:36:14;96951.30;;;25.94;33.77
44313;BME280;38833;51.142;-0.974;2023-10-19T03:38:47;96951.74;;;25.97;33.73
44313;BME280;38833;51.142;-0.974;2023-10-19T03:41:20;96946.93;;;25.76;33.69
44313;BME280;38833;51.142;-0.974;2023-10-19T03:43:54;96940.28;;;26.20;33.75
44313;BME280;38833;51.142;-0.974;2023-10-19T03:46:27;96937.20;;;26.24;33.68
44313;BME280;38833;51.142;-0.974;2023-10-19T03:49:01;96934.41;;;25.93;33.72
44313;BME280;38833;51.142;-0.974;2023-10-19T03:51:34;96926.72;;;25.78;33.65
44313;BME280;38833;51.142;-0.974;2023-10-19T03:54:07;96932.25;;;25.92;33.71
44313;BME280;38833;51.142;-0.974;2023-10-19T03:56:40;96930.27;;;25.56;33.95
44313;BME280;38833;51.142;-0.974;2023-10-19T03:59:13;96922.21;;;25.81;33.83
44313;BME280;38833;51.142;-0.974;2023-10-19T04:01:47;96923.87;;;25.81;33.81
44313;BME280;38833;51.142;-0.974;2023-10-19T04:04:20;96916.44;;;26.08;33.79
44313;BME280;38833;51.142;-0.974;2023-10-19T04:06:53;96916.88;;;26.05;33.83
44313;BME280;38833;51.142;-0.974;2023-10-19T04:09:27;96916.01;;;25.83;33.77
44313;BME280;38833;51.142;-0.974;2023-10-19T04:12:00;96913.39;;;26.08;33.77
44313;BME280;38833;51.142;-0.974;2023-10-19T04:14:33;96909.89;;;25.77;33.84
44313;BME280;38833;51.142;-0.974;2023-10-19T04:17:06;96908.38;;;26.01;33.85
44313;BME280;38833;51.142;-0.974;2023-10-19T04:19:39;96904.54;;;25.74;33.82
44313;BME280;38833;51.142;-0.974;2023-10-19T04:22:12;96900.33;;;25.82;33.74
44313;BME280;38833;51.142;-0.974;2023-10-19T04:24:46;96899.88;;;25.81;33.74
44313;BME280;38833;51.142;-0.974;2023-10-19T04:27:19;96899.06;;;25.98;33.84
44313;BME280;38833;51.142;-0.974;2023-10-19T04:29:52;96900.35;;;25.78;33.73
44313;BME280;38833;51.142;-0.974;2023-10-19T04:32:26;96891.45;;;25.76;33.75
44313;BME280;38833;51.142;-0.974;2023-10-19T04:34:59;96889.67;;;25.94;33.84
44313;BME280;38833;51.142;-0.974;2023-10-19T04:37:32;96882.40;;;25.72;33.79
44313;BME280;38833;51.142;-0.974;2023-10-19T04:40:07;96887.65;;;26.13;33.64
44313;BME280;38833;51.142;-0.974;2023-10-19T04:42:40;96885.54;;;26.02;33.77
44313;BME280;38833;51.142;-0.974;2023-10-19T04:45:13;96881.62;;;26.04;33.77
44313;BME280;38833;51.142;-0.974;2023-10-19T04:47:50;96889.23;;;25.98;33.87
44313;BME280;38833;51.142;-0.974;2023-10-19T04:50:23;96880.27;;;25.08;34.68
44313;BME280;38833;51.142;-0.974;2023-10-19T04:52:56;96879.28;;;25.66;34.41
44313;BME280;38833;51.142;-0.974;2023-10-19T04:55:30;96883.61;;;25.18;34.74
44313;BME280;38833;51.142;-0.974;2023-10-19T04:58:04;96881.98;;;25.38;34.89
44313;BME280;38833;51.142;-0.974;2023-10-19T05:00:37;96880.79;;;25.48;35.12
44313;BME280;38833;51.142;-0.974;2023-10-19T05:03:10;96879.25;;;25.27;35.19
44313;BME280;38833;51.142;-0.974;2023-10-19T05:05:43;96870.32;;;25.54;34.90
44313;BME280;38833;51.142;-0.974;2023-10-19T05:08:16;96877.98;;;25.47;35.04
44313;BME280;38833;51.142;-0.974;2023-10-19T05:10:50;96879.04;;;25.69;34.83
44313;BME280;38833;51.142;-0.974;2023-10-19T05:13:24;96874.48;;;25.74;34.83
44313;BME280;38833;51.142;-0.974;2023-10-19T05:15:57;96872.42;;;25.80;34.83
44313;BME280;38833;51.142;-0.974;2023-10-19T05:18:31;96868.92;;;25.92;34.74
44313;BME280;38833;51.142;-0.974;2023-10-19T05:21:04;96867.94;;;26.03;34.67
44313;BME280;38833;51.142;-0.974;2023-10-19T05:23:38;96865.28;;;25.74;34.74
44313;BME280;38833;51.142;-0.974;2023-10-19T05:26:11;96870.73;;;25.88;34.64
44313;BME280;38833;51.142;-0.974;2023-10-19T05:28:44;96859.65;;;25.99;34.54
44313;BME280;38833;51.142;-0.974;2023-10-19T05:31:17;96864.48;;;25.91;34.43
44313;BME280;38833;51.142;-0.974;2023-10-19T05:33:51;96870.28;;;26.20;34.39
44313;BME280;38833;51.142;-0.974;2023-10-19T05:36:24;96869.28;;;26.35;34.25
44313;BME280;38833;51.142;-0.974;2023-10-19T05:38:58;96871.83;;;26.18;34.22
44313;BME280;38833;51.142;-0.974;2023-10-19T05:41:31;96864.91;;;26.49;34.16
44313;BME280;38833;51.142;-0.974;2023-10-19T05:44:04;96858.54;;;26.62;34.04
44313;BME280;38833;51.142;-0.974;2023-10-19T05:46:38;96855.56;;;26.70;33.98
44313;BME280;38833;51.142;-0.974;2023-10-19T05:49:11;96859.72;;;26.66;34.06
44313;BME280;38833;51.142;-0.974;2023-10-19T05:51:44;96852.63;;;26.58;34.20
44313;BME280;38833;51.142;-0.974;2023-10-19T05:54:17;96855.92;;;26.73;34.05
44313;BME280;38833;51.142;-0.974;2023-10-19T05:56:50;96851.72;;;26.56;34.01
44313;BME280;38833;51.142;-0.974;2023-10-19T05:59:24;96855.82;;;26.68;33.93
44313;BME280;38833;51.142;-0.974;2023-10-19T06:01:57;96857.97;;;26.48;33.89
44313;BME280;38833;51.142;-0.974;2023-10-19T06:04:30;96853.90;;;26.96;33.89
44313;BME280;38833;51.142;-0.974;2023-10-19T06:07:03;96856.46;;;26.86;34.02
44313;BME280;38833;51.142;-0.974;2023-10-19T06:09:36;96860.28;;;26.69;34.01
44313;BME280;38833;51.142;-0.974;2023-10-19T06:12:09;96859.80;;;26.62;34.07
44313;BME280;38833;51.142;-0.974;2023-10-19T06:14:42;96859.69;;;26.95;33.99
44313;BME280;38833;51.142;-0.974;2023-10-19T06:17:15;96861.71;;;26.66;34.08
44313;BME280;38833;51.142;-0.974;2023-10-19T06:19:49;96863.17;;;27.12;33.78
44313;BME280;38833;51.142;-0.974;2023-10-19T06:22:22;96864.12;;;26.90;33.81
44313;BME280;38833;51.142;-0.974;2023-10-19T06:24:55;96858.05;;;26.94;34.02
44313;BME280;38833;51.142;-0.974;2023-10-19T06:27:28;96862.14;;;26.79;33.97
44313;BME280;38833;51.142;-0.974;2023-10-19T06:30:01;96860.80;;;26.95;33.78
44313;BME280;38833;51.142;-0.974;2023-10-19T06:32:35;96866.69;;;27.11;33.87
44313;BME280;38833;51.142;-0.974;2023-10-19T06:35:08;96862.90;;;26.74;33.78
44313;BME280;38833;51.142;-0.974;2023-10-19T06:37:42;96866.67;;;26.94;33.83
44313;BME280;38833;51.142;-0.974;2023-10-19T06:40:16;96863.27;;;26.76;33.76
44313;BME280;38833;51.142;-0.974;2023-10-19T06:42:49;96862.73;;;26.96;33.80
44313;BME280;38833;51.142;-0.974;2023-10-19T06:45:23;96863.67;;;27.08;33.68
44313;BME280;38833;51.142;-0.974;2023-10-19T06:47:56;96865.83;;;27.07;33.68
44313;BME280;38833;51.142;-0.974;2023-10-19T06:50:30;96860.96;;;26.95;33.81
44313;BME280;38833;51.142;-0.974;2023-10-19T06:53:03;96859.74;;;26.80;33.75
44313;BME280;38833;51.142;-0.974;2023-10-19T06:55:36;96863.34;;;26.86;33.65
44313;BME280;38833;51.142;-0.974;2023-10-19T06:58:10;96861.42;;;26.55;33.74
44313;BME280;38833;51.142;-0.974;2023-10-19T07:00:43;96863.88;;;26.67;33.60
44313;BME280;38833;51.142;-0.974;2023-10-19T07:03:16;96859.41;;;26.95;33.55
44313;BME280;38833;51.142;-0.974;2023-10-19T07:05:51;96859.01;;;26.78;33.47
44313;BME280;38833;51.142;-0.974;2023-10-19T07:08:24;96859.34;;;27.00;33.80
44313;BME280;38833;51.142;-0.974;2023-10-19T07:10:58;96859.04;;;26.90;33.90
44313;BME280;38833;51.142;-0.974;2023-10-19T07:13:31;96859.00;;;27.00;33.77
44313;BME280;38833;51.142;-0.974;2023-10-19T07:16:04;96854.54;;;27.19;33.83
44313;BME280;38833;51.142;-0.974;2023-10-19T07:18:37;96857.16;;;27.07;33.47
44313;BME280;38833;51.142;-0.974;2023-10-19T07:21:11;96855.45;;;27.34;33.37
44313;BME280;38833;51.142;-0.974;2023-10-19T07:23:44;96857.35;;;27.67;33.48
44313;BME280;38833;51.142;-0.974;2023-10-19T07:26:17;96860.02;;;27.82;33.80
44313;BME280;38833;51.142;-0.974;2023-10-19T07:28:51;96857.43;;;27.76;33.74
44313;BME280;38833;51.142;-0.974;2023-10-19T07:31:25;96855.98;;;27.63;33.50
44313;BME280;38833;51.142;-0.974;2023-10-19T07:33:58;96860.03;;;27.54;33.56
44313;BME280;38833;51.142;-0.974;2023-10-19T07:36:31;96855.83;;;27.75;33.68
44313;BME280;38833;51.142;-0.974;2023-10-19T07:39:04;96855.21;;;27.68;33.80
44313;BME280;38833;51.142;-0.974;2023-10-19T07:41:38;96850.88;;;27.55;33.81
44313;BME280;38833;51.142;-0.974;2023-10-19T07:44:11;96853.09;;;27.65;33.96
44313;BME280;38833;51.142;-0.974;2023-10-19T07:46:44;96855.37;;;27.73;33.85
44313;BME280;38833;51.142;-0.974;2023-10-19T07:49:18;96853.58;;;28.01;33.84
44313;BME280;38833;51.142;-0.974;2023-10-19T07:51:51;96858.25;;;27.76;33.88
44313;BME280;38833;51.142;-0.974;2023-10-19T07:54:24;96859.86;;;27.72;33.82
44313;BME280;38833;51.142;-0.974;2023-10-19T07:56:57;96866.92;;;27.80;33.72
44313;BME280;38833;51.142;-0.974;2023-10-19T07:59:31;96861.57;;;27.72;33.74
44313;BME280;38833;51.142;-0.974;2023-10-19T08:02:04;96860.16;;;27.92;33.85
44313;BME280;38833;51.142;-0.974;2023-10-19T08:04:37;96860.81;;;27.90;33.77
44313;BME280;38833;51.142;-0.974;2023-10-19T08:07:10;96858.45;;;27.90;33.71
44313;BME280;38833;51.142;-0.974;2023-10-19T08:09:44;96856.75;;;28.05;33.72
44313;BME280;38833;51.142;-0.974;2023-10-19T08:12:17;96852.25;;;27.53;33.79
44313;BME280;38833;51.142;-0.974;2023-10-19T08:14:50;96853.17;;;28.07;33.98
44313;BME280;38833;51.142;-0.974;2023-10-19T08:17:24;96852.19;;;27.85;33.81
44313;BME280;38833;51.142;-0.974;2023-10-19T08:19:57;96850.54;;;27.90;33.83
44313;BME280;38833;51.142;-0.974;2023-10-19T08:22:30;96849.88;;;27.86;33.66
44313;BME280;38833;51.142;-0.974;2023-10-19T08:25:03;96849.62;;;27.81;34.07
44313;BME280;38833;51.142;-0.974;2023-10-19T08:27:37;96849.94;;;27.75;34.36
44313;BME280;38833;51.142;-0.974;2023-10-19T08:30:11;96844.93;;;27.66;33.70
44313;BME280;38833;51.142;-0.974;2023-10-19T08:32:44;96844.20;;;27.81;34.00
44313;BME280;38833;51.142;-0.974;2023-10-19T08:35:19;96848.45;;;28.10;34.20
44313;BME280;38833;51.142;-0.974;2023-10-19T08:37:53;96849.99;;;27.92;33.86
44313;BME280;38833;51.142;-0.974;2023-10-19T08:40:27;96848.90;;;27.91;33.75
44313;BME280;38833;51.142;-0.974;2023-10-19T08:43:00;96852.67;;;27.93;33.64
44313;BME280;38833;51.142;-0.974;2023-10-19T08:45:34;96854.50;;;28.31;33.49
44313;BME280;38833;51.142;-0.974;2023-10-19T08:48:07;96853.14;;;28.06;33.48
44313;BME280;38833;51.142;-0.974;2023-10-19T08:50:41;96855.16;;;28.14;33.37
44313;BME280;38833;51.142;-0.974;2023-10-19T08:53:14;96856.12;;;28.21;33.32
44313;BME280;38833;51.142;-0.974;2023-10-19T08:55:48;96854.50;;;28.25;33.27
44313;BME280;38833;51.142;-0.974;2023-10-19T08:58:21;96857.21;;;28.30;33.26
44313;BME280;38833;51.142;-0.974;2023-10-19T09:00:54;96858.75;;;28.25;33.30
44313;BME280;38833;51.142;-0.974;2023-10-19T09:03:28;96855.36;;;28.23;33.57
44313;BME280;38833;51.142;-0.974;2023-10-19T09:06:03;96855.54;;;28.29;33.32
44313;BME280;38833;51.142;-0.974;2023-10-19T09:08:36;96859.55;;;28.26;33.53
44313;BME280;38833;51.142;-0.974;2023-10-19T09:11:11;96858.70;;;28.36;33.46
44313;BME280;38833;51.142;-0.974;2023-10-19T09:13:45;96855.99;;;28.35;33.37
44313;BME280;38833;51.142;-0.974;2023-10-19T09:16:19;96856.73;;;28.39;33.42
44313;BME280;38833;51.142;-0.974;2023-10-19T09:18:53;96853.70;;;28.40;33.32
44313;BME280;38833;51.142;-0.974;2023-10-19T09:21:26;96858.36;;;28.44;33.48
44313;BME280;38833;51.142;-0.974;2023-10-19T09:23:59;96857.57;;;28.48;33.37
44313;BME280;38833;51.142;-0.974;2023-10-19T09:26:32;96851.48;;;28.64;33.31
44313;BME280;38833;51.142;-0.974;2023-10-19T09:29:05;96849.19;;;28.73;33.35
44313;BME280;38833;51.142;-0.974;2023-10-19T09:31:39;96852.11;;;28.63;33.42
44313;BME280;38833;51.142;-0.974;2023-10-19T09:34:13;96850.19;;;28.65;33.41
44313;BME280;38833;51.142;-0.974;2023-10-19T09:36:46;96852.79;;;28.36;33.74
44313;BME280;38833;51.142;-0.974;2023-10-19T09:39:20;96852.55;;;28.62;33.61
44313;BME280;38833;51.142;-0.974;2023-10-19T09:41:54;96849.73;;;28.63;33.57
44313;BME280;38833;51.142;-0.974;2023-10-19T09:44:30;96845.52;;;28.59;33.63
44313;BME280;38833;51.142;-0.974;2023-10-19T09:47:10;96843.78;;;28.39;33.66
44313;BME280;38833;51.142;-0.974;2023-10-19T09:49:44;96849.25;;;28.61;33.76
44313;BME280;38833;51.142;-0.974;2023-10-19T09:52:18;96849.24;;;28.63;33.82
44313;BME280;38833;51.142;-0.974;2023-10-19T09:54:59;96851.85;;;28.28;34.24
44313;BME280;38833;51.142;-0.974;2023-10-19T09:57:37;96849.85;;;28.24;34.14
44313;BME280;38833;51.142;-0.974;2023-10-19T10:00:13;96849.23;;;28.30;34.07
44313;BME280;38833;51.142;-0.974;2023-10-19T10:02:46;96846.09;;;28.79;33.87
44313;BME280;38833;51.142;-0.974;2023-10-19T10:05:51;96847.40;;;28.71;33.73
44313;BME280;38833;51.142;-0.974;2023-10-19T10:08:32;96843.97;;;28.86;33.71
44313;BME280;38833;51.142;-0.974;2023-10-19T10:11:16;96839.21;;;28.95;33.99
44313;BME280;38833;51.142;-0.974;2023-10-19T10:13:50;96844.45;;;29.05;34.01
44313;BME280;38833;51.142;-0.974;2023-10-19T10:16:25;96841.74;;;29.14;33.90
44313;BME280;38833;51.142;-0.974;2023-10-19T10:19:00;96843.72;;;28.90;33.97
44313;BME280;38833;51.142;-0.974;2023-10-19T10:21:33;96838.32;;;29.20;33.97
44313;BME280;38833;51.142;-0.974;2023-10-19T10:24:07;96839.32;;;29.23;33.98
44313;BME280;38833;51.142;-0.974;2023-10-19T10:27:00;96841.69;;;29.23;33.91
44313;BME280;38833;51.142;-0.974;2023-10-19T10:29:33;96840.60;;;28.94;33.33
44313;BME280;38833;51.142;-0.974;2023-10-19T10:32:07;96830.10;;;28.96;33.83
44313;BME280;38833;51.142;-0.974;2023-10-19T10:34:43;96832.47;;;29.05;34.11
44313;BME280;38833;51.142;-0.974;2023-10-19T10:37:16;96837.40;;;29.43;34.02
44313;BME280;38833;51.142;-0.974;2023-10-19T10:39:49;96833.13;;;29.24;34.04
44313;BME280;38833;51.142;-0.974;2023-10-19T10:42:22;96829.75;;;29.57;34.15
44313;BME280;38833;51.142;-0.974;2023-10-19T10:44:56;96831.38;;;29.32;34.29
44313;BME280;38833;51.142;-0.974;2023-10-19T10:47:29;96833.09;;;29.39;34.33
44313;BME280;38833;51.142;-0.974;2023-10-19T10:50:03;96834.82;;;29.48;34.22
44313;BME280;38833;51.142;-0.974;2023-10-19T10:52:37;96837.28;;;29.57;34.15
44313;BME280;38833;51.142;-0.974;2023-10-19T10:55:11;96832.11;;;29.63;34.11
44313;BME280;38833;51.142;-0.974;2023-10-19T10:57:44;96832.33;;;29.67;34.13
44313;BME280;38833;51.142;-0.974;2023-10-19T11:00:18;96832.55;;;29.67;34.14
44313;BME280;38833;51.142;-0.974;2023-10-19T11:03:01;96835.11;;;29.73;34.17
44313;BME280;38833;51.142;-0.974;2023-10-19T11:05:34;96833.49;;;29.76;34.07
44313;BME280;38833;51.142;-0.974;2023-10-19T11:08:09;96827.40;;;29.77;34.07
44313;BME280;38833;51.142;-0.974;2023-10-19T11:10:43;96826.03;;;29.73;34.12
44313;BME280;38833;51.142;-0.974;2023-10-19T11:13:18;96820.24;;;29.56;34.10
44313;BME280;38833;51.142;-0.974;2023-10-19T11:15:56;96817.55;;;29.75;34.13
44313;BME280;38833;51.142;-0.974;2023-10-19T11:18:29;96815.49;;;29.83;34.04
44313;BME280;38833;51.142;-0.974;2023-10-19T11:21:06;96817.36;;;29.83;34.06
44313;BME280;38833;51.142;-0.974;2023-10-19T11:23:41;96816.89;;;29.86;34.10
44313;BME280;38833;51.142;-0.974;2023-10-19T11:26:16;96815.11;;;29.91;34.04
44313;BME280;38833;51.142;-0.974;2023-10-19T11:28:57;96812.95;;;29.95;34.04
44313;BME280;38833;51.142;-0.974;2023-10-19T11:31:30;96812.54;;;29.91;34.11
44313;BME280;38833;51.142;-0.974;2023-10-19T11:34:04;96807.14;;;29.54;34.02
44313;BME280;38833;51.142;-0.974;2023-10-19T11:36:37;96807.26;;;30.02;34.01
44313;BME280;38833;51.142;-0.974;2023-10-19T11:39:10;96805.83;;;30.04;34.01
44313;BME280;38833;51.142;-0.974;2023-10-19T11:41:43;96808.69;;;29.86;33.97
44313;BME280;38833;51.142;-0.974;2023-10-19T11:44:16;96805.83;;;29.87;33.96
44313;BME280;38833;51.142;-0.974;2023-10-19T11:46:49;96801.38;;;30.14;33.96
44313;BME280;38833;51.142;-0.974;2023-10-19T11:49:23;96795.76;;;29.77;33.92
44313;BME280;38833;51.142;-0.974;2023-10-19T11:51:56;96793.94;;;30.19;33.91
44313;BME280;38833;51.142;-0.974;2023-10-19T11:54:29;96793.52;;;30.23;33.88
44313;BME280;38833;51.142;-0.974;2023-10-19T11:57:02;96795.98;;;29.80;33.84
44313;BME280;38833;51.142;-0.974;2023-10-19T11:59:36;96798.70;;;30.04;33.85
44313;BME280;38833;51.142;-0.974;2023-10-19T12:02:09;96799.69;;;29.80;33.89
44313;BME280;38833;51.142;-0.974;2023-10-19T12:04:42;96801.07;;;30.29;33.80
44313;BME280;38833;51.142;-0.974;2023-10-19T12:07:15;96798.54;;;29.84;33.88
44313;BME280;38833;51.142;-0.974;2023-10-19T12:09:48;96793.41;;;30.31;33.82
44313;BME280;38833;51.142;-0.974;2023-10-19T12:12:22;96794.95;;;29.91;33.76
44313;BME280;38833;51.142;-0.974;2023-10-19T12:14:55;96783.30;;;30.15;33.80
44313;BME280;38833;51.142;-0.974;2023-10-19T12:17:28;96766.40;;;29.98;33.72
44313;BME280;38833;51.142;-0.974;2023-10-19T12:20:01;96765.62;;;29.98;33.73
44313;BME280;38833;51.142;-0.974;2023-10-19T12:22:34;96739.44;;;30.22;33.81
44313;BME280;38833;51.142;-0.974;2023-10-19T12:25:08;96735.08;;;30.01;33.84
44313;BME280;38833;51.142;-0.974;2023-10-19T12:27:41;96736.82;;;30.23;33.80
44313;BME280;38833;51.142;-0.974;2023-10-19T12:30:14;96744.89;;;29.91;34.02
44313;BME280;38833;51.142;-0.974;2023-10-19T12:32:48;96742.78;;;29.97;34.01
44313;BME280;38833;51.142;-0.974;2023-10-19T12:35:21;96740.95;;;29.86;34.08
44313;BME280;38833;51.142;-0.974;2023-10-19T12:37:54;96748.99;;;29.88;34.05
44313;BME280;38833;51.142;-0.974;2023-10-19T12:40:28;96746.60;;;30.35;34.08
44313;BME280;38833;51.142;-0.974;2023-10-19T12:43:03;96744.58;;;30.11;34.05
44313;BME280;38833;51.142;-0.974;2023-10-19T12:45:37;96743.30;;;30.10;34.07
44313;BME280;38833;51.142;-0.974;2023-10-19T12:48:10;96747.25;;;30.06;34.15
44313;BME280;38833;51.142;-0.974;2023-10-19T12:50:43;96740.59;;;30.28;34.16
44313;BME280;38833;51.142;-0.974;2023-10-19T12:53:17;96740.11;;;29.81;34.23
44313;BME280;38833;51.142;-0.974;2023-10-19T12:55:50;96737.11;;;29.83;34.26
44313;BME280;38833;51.142;-0.974;2023-10-19T12:58:23;96734.38;;;30.07;34.23
44313;BME280;38833;51.142;-0.974;2023-10-19T13:00:56;96734.39;;;30.28;34.21
44313;BME280;38833;51.142;-0.974;2023-10-19T13:03:30;96733.50;;;29.81;34.24
44313;BME280;38833;51.142;-0.974;2023-10-19T13:06:04;96735.68;;;30.32;34.22
44313;BME280;38833;51.142;-0.974;2023-10-19T13:08:37;96738.70;;;30.10;34.25
44313;BME280;38833;51.142;-0.974;2023-10-19T13:11:11;96733.20;;;29.96;34.31
44313;BME280;38833;51.142;-0.974;2023-10-19T13:13:44;96735.16;;;30.12;34.32
44313;BME280;38833;51.142;-0.974;2023-10-19T13:16:17;96745.08;;;29.69;33.52
44313;BME280;38833;51.142;-0.974;2023-10-19T13:18:50;96742.88;;;29.59;33.07
44313;BME280;38833;51.142;-0.974;2023-10-19T13:21:24;96740.69;;;29.67;32.99
44313;BME280;38833;51.142;-0.974;2023-10-19T13:23:57;96739.93;;;29.53;33.04